createdAt,value
2023-01-29T00:01:19.689Z,103072.41
2023-01-29T00:03:46.209Z,103068.09
2023-01-29T00:06:12.832Z,103069.03
2023-01-29T00:08:39.451Z,103064.78
2023-01-29T00:11:08.280Z,103056.03
2023-01-29T00:13:34.873Z,103063.09
2023-01-29T00:16:01.679Z,103070.81
2023-01-29T00:18:29.066Z,103066.47
2023-01-29T00:20:55.848Z,103068.09
2023-01-29T00:23:22.922Z,103062.06
2023-01-29T00:25:49.434Z,103068.00
2023-01-29T00:28:15.932Z,103062.84
2023-01-29T00:30:43.374Z,103057.72
2023-01-29T00:33:09.829Z,103054.25
2023-01-29T00:35:39.960Z,103042.97
2023-01-29T00:38:06.566Z,103042.97
2023-01-29T00:40:33.045Z,103031.81
2023-01-29T00:42:59.530Z,103036.94
2023-01-29T00:45:25.950Z,103033.47
2023-01-29T00:47:52.456Z,103032.69
2023-01-29T00:50:19.359Z,103035.25
2023-01-29T00:52:46.101Z,103029.16
2023-01-29T00:55:12.571Z,103036.94
2023-01-29T00:57:39.165Z,103033.56
2023-01-29T01:00:09.005Z,103027.63
2023-01-29T01:02:35.509Z,103019.81
2023-01-29T01:05:04.539Z,103019.91
2023-01-29T01:07:31.014Z,103020.78
2023-01-29T01:09:57.678Z,103019.91
2023-01-29T01:12:24.146Z,103020.78
2023-01-29T01:14:50.616Z,103015.66
2023-01-29T01:17:17.361Z,103015.66
2023-01-29T01:19:43.920Z,103004.47
2023-01-29T01:22:10.724Z,103007.13
2023-01-29T01:24:37.998Z,103013.06
2023-01-29T01:27:04.675Z,103015.75
2023-01-29T01:29:31.481Z,103022.56
2023-01-29T01:31:58.198Z,103020.00
2023-01-29T01:34:24.996Z,103023.47
2023-01-29T01:36:51.461Z,103025.16
2023-01-29T01:39:17.909Z,103016.53
2023-01-29T01:41:44.875Z,103024.34
2023-01-29T01:44:49.079Z,103020.78
2023-01-29T01:47:16.859Z,103022.56
2023-01-29T01:49:44.929Z,103020.88
2023-01-29T01:52:13.501Z,103024.34
2023-01-29T01:54:40.149Z,103017.44
2023-01-29T01:57:12.009Z,103017.44
2023-01-29T01:59:40.396Z,103017.47
2023-01-29T02:02:07.608Z,103020.94
2023-01-29T02:04:34.131Z,103023.50
2023-01-29T02:07:04.823Z,103024.34
2023-01-29T02:09:49.913Z,103020.00
2023-01-29T02:12:17.405Z,103020.78
2023-01-29T02:14:44.767Z,103020.78
2023-01-29T02:17:15.374Z,103022.41
2023-01-29T02:20:05.153Z,103013.00
2023-01-29T02:22:54.675Z,103012.91
2023-01-29T02:25:46.720Z,103015.47
2023-01-29T02:28:19.263Z,103011.97
2023-01-29T02:31:04.497Z,103010.19
2023-01-29T02:33:42.021Z,102997.00
2023-01-29T02:36:20.018Z,103007.53
2023-01-29T02:39:12.308Z,102986.53
2023-01-29T02:41:45.766Z,102999.72
2023-01-29T02:44:30.253Z,102995.53
2023-01-29T02:47:21.752Z,102985.91
2023-01-29T02:49:59.670Z,102993.16
2023-01-29T02:52:59.552Z,102988.81
2023-01-29T02:55:43.839Z,102990.63
2023-01-29T02:58:38.335Z,102983.72
2023-01-29T03:01:12.383Z,102977.53
2023-01-29T03:03:43.942Z,102978.75
2023-01-29T03:06:23.095Z,102971.09
2023-01-29T03:09:01.076Z,102965.06
2023-01-29T03:11:34.757Z,102954.59
2023-01-29T03:14:20.438Z,102962.50
2023-01-29T03:16:53.636Z,102966.84
2023-01-29T03:19:35.352Z,102952.13
2023-01-29T03:22:07.457Z,102957.44
2023-01-29T03:24:55.826Z,102959.94
2023-01-29T03:27:30.438Z,102957.34
2023-01-29T03:29:59.157Z,102945.38
2023-01-29T03:32:35.590Z,102942.81
2023-01-29T03:35:05.083Z,102935.09
2023-01-29T03:37:41.761Z,102932.50
2023-01-29T03:40:09.694Z,102929.94
2023-01-29T03:42:57.940Z,102930.81
2023-01-29T03:45:39.491Z,102922.84
2023-01-29T03:48:24.782Z,102926.38
2023-01-29T03:51:01.809Z,102926.16
2023-01-29T03:53:47.358Z,102931.41
2023-01-29T03:56:33.874Z,102930.41
2023-01-29T03:59:40.946Z,102926.06
2023-01-29T04:02:35.725Z,102924.25
2023-01-29T04:05:15.857Z,102911.88
2023-01-29T04:07:59.778Z,102916.34
2023-01-29T04:10:29.358Z,102904.84
2023-01-29T04:13:07.545Z,102915.38
2023-01-29T04:15:40.890Z,102908.41
2023-01-29T04:18:07.738Z,102910.09
2023-01-29T04:20:47.188Z,102913.47
2023-01-29T04:23:22.814Z,102908.97
2023-01-29T04:26:25.902Z,102905.50
2023-01-29T04:29:24.129Z,102901.16
2023-01-29T04:32:00.039Z,102913.22
2023-01-29T04:34:45.965Z,102903.75
2023-01-29T04:37:39.693Z,102902.06
2023-01-29T04:40:44.524Z,102895.13
2023-01-29T04:43:21.641Z,102885.41
2023-01-29T04:46:10.192Z,102883.03
2023-01-29T04:48:53.358Z,102877.69
2023-01-29T04:51:32.367Z,102877.63
2023-01-29T04:54:26.542Z,102875.03
2023-01-29T04:57:05.044Z,102863.06
2023-01-29T04:59:41.885Z,102867.28
2023-01-29T05:02:11.688Z,102859.25
2023-01-29T05:04:41.315Z,102859.38
2023-01-29T05:07:12.973Z,102871.44
2023-01-29T05:09:39.951Z,102860.34
2023-01-29T05:12:09.791Z,102856.00
2023-01-29T05:14:39.481Z,102831.75
2023-01-29T05:17:13.758Z,102824.03
2023-01-29T05:19:40.295Z,102839.59
2023-01-29T05:22:10.317Z,102824.84
2023-01-29T05:24:38.210Z,102821.69
2023-01-29T05:27:05.171Z,102829.41
2023-01-29T05:29:31.698Z,102840.50
2023-01-29T05:31:58.144Z,102833.66
2023-01-29T05:34:24.804Z,102822.50
2023-01-29T05:36:51.365Z,102832.78
2023-01-29T05:39:17.857Z,102825.16
2023-01-29T05:41:44.312Z,102826.94
2023-01-29T05:44:11.086Z,102811.50
2023-01-29T05:46:38.416Z,102802.97
2023-01-29T05:49:05.620Z,102798.63
2023-01-29T05:51:32.242Z,102800.41
2023-01-29T05:53:58.704Z,102807.16
2023-01-29T05:56:25.174Z,102815.75
2023-01-29T05:58:51.668Z,102809.72
2023-01-29T06:01:21.118Z,102791.41
2023-01-29T06:03:48.035Z,102801.13
2023-01-29T06:06:15.061Z,102802.81
2023-01-29T06:08:41.640Z,102787.38
2023-01-29T06:11:10.526Z,102792.22
2023-01-29T06:13:37.427Z,102791.63
2023-01-29T06:16:08.833Z,102804.41
2023-01-29T06:18:38.732Z,102808.75
2023-01-29T06:21:06.995Z,102795.88
2023-01-29T06:23:33.888Z,102795.00
2023-01-29T06:26:06.131Z,102783.69
2023-01-29T06:28:32.714Z,102788.97
2023-01-29T06:31:20.957Z,102792.53
2023-01-29T06:33:47.852Z,102786.41
2023-01-29T06:36:14.329Z,102779.53
2023-01-29T06:38:40.851Z,102786.28
2023-01-29T06:41:17.842Z,102774.06
2023-01-29T06:43:45.415Z,102776.78
2023-01-29T06:46:11.928Z,102784.41
2023-01-29T06:48:38.420Z,102780.94
2023-01-29T06:51:07.362Z,102774.88
2023-01-29T06:53:37.271Z,102768.66
2023-01-29T06:56:04.719Z,102764.28
2023-01-29T06:58:31.266Z,102764.09
2023-01-29T07:01:08.606Z,102757.94
2023-01-29T07:03:35.135Z,102756.97
2023-01-29T07:06:02.033Z,102762.84
2023-01-29T07:08:28.562Z,102762.06
2023-01-29T07:11:01.802Z,102760.28
2023-01-29T07:13:28.637Z,102766.34
2023-01-29T07:15:58.772Z,102762.09
2023-01-29T07:18:25.253Z,102758.66
2023-01-29T07:20:51.881Z,102762.94
2023-01-29T07:23:18.360Z,102753.50
2023-01-29T07:25:44.881Z,102756.03
2023-01-29T07:28:11.394Z,102756.03
2023-01-29T07:30:38.111Z,102753.50
2023-01-29T07:33:07.618Z,102756.91
2023-01-29T07:35:42.849Z,102761.22
2023-01-29T07:38:11.329Z,102741.53
2023-01-29T07:40:38.925Z,102739.84
2023-01-29T07:43:07.198Z,102746.69
2023-01-29T07:45:35.958Z,102744.94
2023-01-29T07:48:03.214Z,102744.84
2023-01-29T07:50:29.663Z,102751.78
2023-01-29T07:52:56.204Z,102750.88
2023-01-29T07:55:23.516Z,102750.94
2023-01-29T07:58:03.091Z,102746.75
2023-01-29T08:00:31.218Z,102738.91
2023-01-29T08:03:05.590Z,102740.81
2023-01-29T08:05:32.657Z,102749.50
2023-01-29T08:08:06.646Z,102740.81
2023-01-29T08:10:35.048Z,102748.84
2023-01-29T08:13:02.522Z,102747.06
2023-01-29T08:15:29.632Z,102738.56
2023-01-29T08:17:58.246Z,102740.34
2023-01-29T08:20:25.672Z,102738.69
2023-01-29T08:23:06.417Z,102730.06
2023-01-29T08:25:34.381Z,102731.97
2023-01-29T08:28:01.332Z,102725.22
2023-01-29T08:30:30.177Z,102717.34
2023-01-29T08:32:56.689Z,102723.66
2023-01-29T08:35:23.974Z,102716.84
2023-01-29T08:38:09.402Z,102716.13
2023-01-29T08:40:35.886Z,102710.22
2023-01-29T08:43:06.292Z,102712.81
2023-01-29T08:45:35.939Z,102713.91
2023-01-29T08:48:02.493Z,102708.84
2023-01-29T08:50:29.017Z,102707.25
2023-01-29T08:52:59.400Z,102718.47
2023-01-29T08:55:26.837Z,102716.94
2023-01-29T08:57:53.398Z,102716.16
2023-01-29T09:00:20.393Z,102706.00
2023-01-29T09:02:46.905Z,102720.75
2023-01-29T09:05:13.453Z,102713.28
2023-01-29T09:07:39.928Z,102716.06
2023-01-29T09:10:07.076Z,102723.19
2023-01-29T09:12:33.722Z,102725.97
2023-01-29T09:15:00.187Z,102721.84
2023-01-29T09:17:26.659Z,102716.78
2023-01-29T09:19:53.176Z,102717.00
2023-01-29T09:22:20.256Z,102711.25
2023-01-29T09:24:46.745Z,102711.41
2023-01-29T09:27:13.278Z,102708.31
2023-01-29T09:29:39.744Z,102711.22
2023-01-29T09:32:07.067Z,102706.34
2023-01-29T09:34:33.970Z,102711.78
2023-01-29T09:37:00.508Z,102706.06
2023-01-29T09:39:26.975Z,102704.59
2023-01-29T09:42:03.148Z,102701.34
2023-01-29T09:44:48.548Z,102700.81
2023-01-29T09:47:17.631Z,102695.09
2023-01-29T09:49:58.795Z,102681.31
2023-01-29T09:52:36.699Z,102689.56
2023-01-29T09:55:10.540Z,102679.66
2023-01-29T09:57:53.325Z,102695.09
2023-01-29T10:00:54.874Z,102685.16
2023-01-29T10:03:45.685Z,102685.59
2023-01-29T10:06:25.272Z,102687.31
2023-01-29T10:09:22.674Z,102691.91
2023-01-29T10:12:01.052Z,102689.41
2023-01-29T10:14:27.519Z,102692.88
2023-01-29T10:17:09.474Z,102694.50
2023-01-29T10:20:03.167Z,102676.06
2023-01-29T10:22:39.310Z,102681.25
2023-01-29T10:25:10.703Z,102676.06
2023-01-29T10:27:41.392Z,102665.41
2023-01-29T10:30:20.836Z,102672.34
2023-01-29T10:32:49.126Z,102677.31
2023-01-29T10:35:33.657Z,102670.38
2023-01-29T10:38:14.023Z,102665.41
2023-01-29T10:40:49.096Z,102659.53
2023-01-29T10:43:40.750Z,102657.88
2023-01-29T10:46:22.446Z,102651.97
2023-01-29T10:49:08.215Z,102647.81
2023-01-29T10:51:56.555Z,102635.88
2023-01-29T10:54:46.153Z,102640.31
2023-01-29T10:57:46.549Z,102634.47
2023-01-29T11:00:22.483Z,102632.22
2023-01-29T11:02:50.894Z,102622.91
2023-01-29T11:05:26.511Z,102622.19
2023-01-29T11:08:03.627Z,102615.41
2023-01-29T11:10:37.285Z,102618.09
2023-01-29T11:13:05.255Z,102603.38
2023-01-29T11:15:33.243Z,102589.66
2023-01-29T11:18:04.022Z,102601.22
2023-01-29T11:20:32.570Z,102593.75
2023-01-29T11:22:59.117Z,102594.06
2023-01-29T11:25:25.651Z,102584.09
2023-01-29T11:27:57.569Z,102573.81
2023-01-29T11:30:41.376Z,102576.94
2023-01-29T11:33:23.951Z,102565.06
2023-01-29T11:35:50.616Z,102557.47
2023-01-29T11:38:19.019Z,102561.75
2023-01-29T11:40:45.932Z,102563.47
2023-01-29T11:43:41.815Z,102559.16
2023-01-29T11:46:13.950Z,102554.59
2023-01-29T11:48:49.262Z,102552.97
2023-01-29T11:51:28.466Z,102557.41
2023-01-29T11:53:58.492Z,102552.25
2023-01-29T11:56:42.208Z,102543.00
2023-01-29T11:59:39.947Z,102534.53
2023-01-29T12:02:30.893Z,102533.78
2023-01-29T12:05:04.430Z,102518.44
2023-01-29T12:07:32.022Z,102519.53
2023-01-29T12:09:59.402Z,102503.50
2023-01-29T12:12:41.370Z,102504.78
2023-01-29T12:15:18.601Z,102486.28
2023-01-29T12:17:52.241Z,102477.50
2023-01-29T12:20:26.075Z,102468.94
2023-01-29T12:23:18.516Z,102461.69
2023-01-29T12:26:04.613Z,102458.44
2023-01-29T12:28:46.257Z,102455.06
2023-01-29T12:31:29.630Z,102451.44
2023-01-29T12:34:25.603Z,102438.56
2023-01-29T12:37:04.621Z,102416.81
2023-01-29T12:39:31.061Z,102435.94
2023-01-29T12:42:05.014Z,102418.94
2023-01-29T12:44:39.653Z,102419.06
2023-01-29T12:47:11.168Z,102420.34
2023-01-29T12:49:39.619Z,102420.78
2023-01-29T12:52:15.550Z,102415.78
2023-01-29T12:54:58.070Z,102408.84
2023-01-29T12:57:48.570Z,102395.63
2023-01-29T13:00:22.268Z,102390.28
2023-01-29T13:03:01.593Z,102397.19
2023-01-29T13:05:38.950Z,102391.88
2023-01-29T13:08:40.815Z,102377.03
2023-01-29T13:11:15.964Z,102376.09
2023-01-29T13:13:52.907Z,102367.25
2023-01-29T13:16:25.736Z,102363.78
2023-01-29T13:19:02.244Z,102369.00
2023-01-29T13:21:37.137Z,102362.13
2023-01-29T13:24:11.229Z,102358.00
2023-01-29T13:26:39.290Z,102349.56
2023-01-29T13:29:05.924Z,102351.44
2023-01-29T13:31:35.297Z,102354.19
2023-01-29T13:34:27.749Z,102346.69
2023-01-29T13:37:01.173Z,102335.66
2023-01-29T13:39:31.819Z,102340.25
2023-01-29T13:42:00.908Z,102326.59
2023-01-29T13:44:37.628Z,102335.25
2023-01-29T13:47:10.248Z,102328.47
2023-01-29T13:49:47.177Z,102313.81
2023-01-29T13:52:22.279Z,102315.59
2023-01-29T13:54:58.876Z,102309.59
2023-01-29T13:57:48.113Z,102307.00
2023-01-29T14:00:20.621Z,102310.47
2023-01-29T14:03:07.907Z,102312.22
2023-01-29T14:05:44.651Z,102302.78
2023-01-29T14:08:14.150Z,102309.88
2023-01-29T14:10:42.659Z,102300.41
2023-01-29T14:13:18.235Z,102302.38
2023-01-29T14:15:50.080Z,102298.97
2023-01-29T14:18:22.020Z,102292.16
2023-01-29T14:20:48.459Z,102299.22
2023-01-29T14:23:24.128Z,102298.44
2023-01-29T14:25:51.095Z,102295.88
2023-01-29T14:28:23.724Z,102288.91
2023-01-29T14:30:51.678Z,102285.44
2023-01-29T14:33:35.129Z,102279.34
2023-01-29T14:36:06.289Z,102284.41
2023-01-29T14:38:33.709Z,102276.47
2023-01-29T14:41:27.080Z,102273.72
2023-01-29T14:44:32.031Z,102273.66
2023-01-29T14:46:58.622Z,102273.78
2023-01-29T14:49:53.071Z,102261.91
2023-01-29T14:52:24.423Z,102267.41
2023-01-29T14:54:53.573Z,102258.94
2023-01-29T14:57:20.335Z,102258.22
2023-01-29T14:59:53.041Z,102260.81
2023-01-29T15:02:24.322Z,102260.81
2023-01-29T15:04:55.152Z,102260.69
2023-01-29T15:07:58.387Z,102263.06
2023-01-29T15:10:39.568Z,102262.88
2023-01-29T15:13:26.744Z,102249.59
2023-01-29T15:15:59.885Z,102256.44
2023-01-29T15:18:45.660Z,102247.69
2023-01-29T15:21:17.338Z,102236.34
2023-01-29T15:23:44.535Z,102245.94
2023-01-29T15:26:18.067Z,102235.47
2023-01-29T15:28:54.851Z,102243.28
2023-01-29T15:31:25.855Z,102239.88
2023-01-29T15:33:55.346Z,102245.00
2023-01-29T15:36:30.854Z,102229.31
2023-01-29T15:39:26.396Z,102227.56
2023-01-29T15:42:11.497Z,102231.84
2023-01-29T15:44:45.056Z,102221.34
2023-01-29T15:47:12.734Z,102225.63
2023-01-29T15:49:41.067Z,102210.72
2023-01-29T15:52:29.639Z,102224.50
2023-01-29T15:55:01.448Z,102213.22
2023-01-29T15:57:33.537Z,102206.03
2023-01-29T16:00:00.201Z,102209.50
2023-01-29T16:02:35.619Z,102199.06
2023-01-29T16:05:03.593Z,102194.59
2023-01-29T16:07:30.511Z,102194.50
2023-01-29T16:09:58.453Z,102186.59
2023-01-29T16:12:25.176Z,102183.03
2023-01-29T16:14:52.408Z,102178.56
2023-01-29T16:17:32.442Z,102179.16
2023-01-29T16:20:00.353Z,102170.47
2023-01-29T16:22:32.625Z,102172.03
2023-01-29T16:25:07.609Z,102151.88
2023-01-29T16:27:34.907Z,102160.47
2023-01-29T16:30:01.757Z,102157.72
2023-01-29T16:32:30.272Z,102162.75
2023-01-29T16:34:59.688Z,102160.00
2023-01-29T16:37:33.404Z,102145.91
2023-01-29T16:39:59.992Z,102157.91
2023-01-29T16:42:27.547Z,102160.44
2023-01-29T16:45:01.162Z,102159.38
2023-01-29T16:47:27.569Z,102153.25
2023-01-29T16:49:59.873Z,102159.16
2023-01-29T16:52:34.668Z,102166.75
2023-01-29T16:55:11.434Z,102163.22
2023-01-29T16:57:39.858Z,102150.13
2023-01-29T17:00:18.445Z,102149.03
2023-01-29T17:02:44.978Z,102143.00
2023-01-29T17:05:26.032Z,102138.59
2023-01-29T17:07:55.462Z,102128.19
2023-01-29T17:10:22.027Z,102121.22
2023-01-29T17:12:56.151Z,102115.94
2023-01-29T17:15:43.601Z,102102.84
2023-01-29T17:18:20.144Z,102097.63
2023-01-29T17:20:47.402Z,102096.63
2023-01-29T17:23:14.123Z,102103.44
2023-01-29T17:25:40.956Z,102111.97
2023-01-29T17:28:07.711Z,102116.16
2023-01-29T17:30:35.235Z,102120.41
2023-01-29T17:33:01.718Z,102128.97
2023-01-29T17:35:28.574Z,102128.06
2023-01-29T17:37:55.056Z,102122.81
2023-01-29T17:40:37.533Z,102118.44
2023-01-29T17:43:03.994Z,102106.22
2023-01-29T17:45:30.464Z,102105.34
2023-01-29T17:47:56.946Z,102106.94
2023-01-29T17:50:27.019Z,102100.78
2023-01-29T17:52:53.512Z,102110.28
2023-01-29T17:55:20.279Z,102119.66
2023-01-29T17:57:46.894Z,102118.78
2023-01-29T18:00:20.896Z,102125.59
2023-01-29T18:02:47.477Z,102129.88
2023-01-29T18:05:14.854Z,102125.53
2023-01-29T18:07:43.436Z,102147.03
2023-01-29T18:10:15.461Z,102145.28
2023-01-29T18:12:41.973Z,102146.91
2023-01-29T18:15:09.417Z,102158.94
2023-01-29T18:17:36.191Z,102163.16
2023-01-29T18:20:02.749Z,102186.41
2023-01-29T18:22:29.281Z,102203.50
2023-01-29T18:24:55.693Z,102204.28
2023-01-29T18:27:22.131Z,102194.78
2023-01-29T18:29:48.590Z,102195.56
2023-01-29T18:32:15.050Z,102183.47
2023-01-29T18:34:41.595Z,102186.81
2023-01-29T18:37:08.069Z,102182.38
2023-01-29T18:39:34.491Z,102183.16
2023-01-29T18:42:00.980Z,102189.94
2023-01-29T18:44:27.413Z,102183.06
2023-01-29T18:46:53.880Z,102186.41
2023-01-29T18:49:20.467Z,102189.78
2023-01-29T18:51:46.911Z,102189.72
2023-01-29T18:54:13.336Z,102181.84
2023-01-29T18:57:11.614Z,102191.31
2023-01-29T18:59:26.268Z,102197.19
2023-01-29T19:01:52.759Z,102199.78
2023-01-29T19:04:19.320Z,102202.25
2023-01-29T19:06:46.923Z,102196.25
2023-01-29T19:09:13.504Z,102179.06
2023-01-29T19:11:42.529Z,102177.28
2023-01-29T19:14:09.050Z,102163.38
2023-01-29T19:16:35.469Z,102174.56
2023-01-29T19:19:01.957Z,102171.88
2023-01-29T19:21:28.415Z,102165.75
2023-01-29T19:23:54.866Z,102174.19
2023-01-29T19:26:21.776Z,102187.03
2023-01-29T19:28:48.283Z,102190.38
2023-01-29T19:31:14.898Z,102186.03
2023-01-29T19:33:41.356Z,102155.84
2023-01-29T19:36:08.224Z,102160.19
2023-01-29T19:38:34.710Z,102144.66
2023-01-29T19:41:01.201Z,102143.78
2023-01-29T19:43:31.918Z,102144.59
2023-01-29T19:46:00.330Z,102147.13
2023-01-29T19:48:27.445Z,102135.00
2023-01-29T19:50:59.101Z,102118.50
2023-01-29T19:53:27.283Z,102124.59
2023-01-29T19:56:01.990Z,102103.00
2023-01-29T19:58:29.003Z,102084.00
2023-01-29T20:01:03.919Z,102071.09
2023-01-29T20:03:31.068Z,102072.66
2023-01-29T20:06:06.882Z,102079.44
2023-01-29T20:08:33.992Z,102088.00
2023-01-29T20:11:00.743Z,102080.94
2023-01-29T20:13:27.854Z,102077.41
2023-01-29T20:15:55.626Z,102064.31
2023-01-29T20:18:22.170Z,102058.31
2023-01-29T20:20:50.483Z,102056.44
2023-01-29T20:23:31.837Z,102059.75
2023-01-29T20:26:04.023Z,102061.31
2023-01-29T20:28:30.628Z,102069.84
2023-01-29T20:30:57.217Z,102080.06
2023-01-29T20:33:24.057Z,102084.28
2023-01-29T20:35:58.569Z,102086.63
2023-01-29T20:38:25.603Z,102114.16
2023-01-29T20:40:52.040Z,102109.00
2023-01-29T20:43:18.532Z,102122.69
2023-01-29T20:45:45.053Z,102127.78
2023-01-29T20:48:11.549Z,102135.44
2023-01-29T20:50:38.041Z,102125.03
2023-01-29T20:53:04.579Z,102139.59
2023-01-29T20:55:31.210Z,102137.78
2023-01-29T20:58:05.474Z,102144.59
2023-01-29T21:00:32.557Z,102156.53
2023-01-29T21:02:59.034Z,102163.34
2023-01-29T21:05:25.763Z,102154.66
2023-01-29T21:07:52.190Z,102146.06
2023-01-29T21:10:19.018Z,102136.50
2023-01-29T21:12:45.655Z,102135.69
2023-01-29T21:15:12.246Z,102118.50
2023-01-29T21:17:38.713Z,102115.88
2023-01-29T21:20:05.679Z,102123.63
2023-01-29T21:22:32.162Z,102124.53
2023-01-29T21:24:58.578Z,102127.09
2023-01-29T21:27:25.537Z,102121.13
2023-01-29T21:29:52.048Z,102124.66
2023-01-29T21:32:18.486Z,102115.25
2023-01-29T21:34:44.895Z,102106.84
2023-01-29T21:37:11.356Z,102094.00
2023-01-29T21:39:37.793Z,102081.13
2023-01-29T21:42:04.549Z,102075.97
2023-01-29T21:44:33.546Z,102073.38
2023-01-29T21:47:00.430Z,102068.22
2023-01-29T21:49:27.195Z,102069.88
2023-01-29T21:51:53.717Z,102068.09
2023-01-29T21:54:20.251Z,102063.75
2023-01-29T21:56:46.693Z,102050.00
2023-01-29T21:59:13.208Z,102041.38
2023-01-29T22:01:39.690Z,102036.19
2023-01-29T22:04:06.198Z,102024.19
2023-01-29T22:06:32.686Z,102037.06
2023-01-29T22:08:59.109Z,102032.84
2023-01-29T22:11:25.887Z,102032.84
2023-01-29T22:13:52.349Z,102027.69
2023-01-29T22:16:18.786Z,102039.75
2023-01-29T22:18:45.203Z,102044.91
2023-01-29T22:21:11.680Z,102027.69
2023-01-29T22:23:38.107Z,102025.94
2023-01-29T22:26:06.720Z,102034.41
2023-01-29T22:28:33.183Z,102050.69
2023-01-29T22:31:03.390Z,102067.78
2023-01-29T22:33:30.232Z,102062.63
2023-01-29T22:35:56.956Z,102060.88
2023-01-29T22:38:23.743Z,102058.25
2023-01-29T22:40:54.619Z,102047.81
2023-01-29T22:43:21.817Z,102040.09
2023-01-29T22:45:48.395Z,102058.06
2023-01-29T22:48:15.356Z,102062.31
2023-01-29T22:50:41.880Z,102052.91
2023-01-29T22:53:08.785Z,102049.44
2023-01-29T22:55:35.226Z,102048.63
2023-01-29T22:58:01.686Z,102067.53
2023-01-29T23:00:28.097Z,102052.97
2023-01-29T23:02:54.525Z,102055.53
2023-01-29T23:05:20.959Z,102046.16
2023-01-29T23:07:47.413Z,102052.97
2023-01-29T23:10:14.636Z,102054.59
2023-01-29T23:12:41.368Z,102052.03
2023-01-29T23:15:08.053Z,102059.75
2023-01-29T23:17:34.522Z,102069.31
2023-01-29T23:20:00.973Z,102060.81
2023-01-29T23:22:27.440Z,102066.09
2023-01-29T23:24:53.870Z,102044.78
2023-01-29T23:27:20.375Z,102047.50
2023-01-29T23:29:48.406Z,102051.09
2023-01-29T23:32:17.460Z,102034.78
2023-01-29T23:34:43.921Z,102045.41
2023-01-29T23:37:10.466Z,102056.81
2023-01-29T23:39:36.951Z,102061.31
2023-01-29T23:42:03.745Z,102053.66
2023-01-29T23:44:30.183Z,102051.28
2023-01-29T23:46:56.721Z,102040.19
2023-01-29T23:49:23.274Z,102036.78
2023-01-29T23:51:50.792Z,102035.09
2023-01-29T23:54:17.815Z,102038.47
2023-01-29T23:56:44.814Z,102037.72
2023-01-29T23:59:11.379Z,102037.72
